Mid Delta Regional Airport Greenville US
ICAO: KGLH
IATA: GLH
Category: Medium
Scheduled Services: Yes

Elevation: 131 ft
TransAlt. 18000 ft.

Airport Communications:
ASOS:125.525
MEMPHIS CNTR:135.875
CTAF:119
GND:121.8
GREENVILLE TWR:119
UNICOM:122.95

KGLH Zoom In..

Runways:

(A) RW 18L length 8001 ft width 150 ft
ILS 109.10 / hdg 177

(B) RW 18R length 7019 ft width 150 ft
---- / hdg 177

(C) RW 36L length 7019 ft width 150 ft
---- / hdg 357

(D) RW 36R length 8001 ft width 150 ft
---- / hdg 357

Location; KGLH
Day. 22 / Time. 23.53 Zulu
* Altimeter: 29.88
* Temperature: 12° c. 53.6°f.
* Wind from: 260° Speed 13 kn.
Dewpoint: -02° c.
Visibility: 10 Statute Miles.
Clouds: Clear (automated report).

KGLH 222353Z 26013KT 10SM CLR 12/M02 A2988 RMK AO2 SLP126 T01221017 10172 20122 53022


Wind From 260°
Speed 13 kn.

YouTube Music Video
 
jpsmedia.com for Web Design  worldairports.se 2018   terms of use